sensor_id;sensor_type;location;lat;lon;timestamp;P1;durP1;ratioP1;P2;durP2;ratioP2
68108;SDS011;54893;49.864;19.084;2023-04-01T00:00:15;4.50;;;2.03;;
68108;SDS011;54893;49.864;19.084;2023-04-01T00:05:16;4.63;;;1.45;;
68108;SDS011;54893;49.864;19.084;2023-04-01T00:10:17;5.15;;;1.38;;
68108;SDS011;54893;49.864;19.084;2023-04-01T00:15:18;4.13;;;1.63;;
68108;SDS011;54893;49.864;19.084;2023-04-01T00:20:18;3.40;;;1.13;;
68108;SDS011;54893;49.864;19.084;2023-04-01T00:25:18;4.03;;;1.60;;
68108;SDS011;54893;49.864;19.084;2023-04-01T00:30:19;4.30;;;1.40;;
68108;SDS011;54893;49.864;19.084;2023-04-01T00:35:20;4.32;;;1.35;;
68108;SDS011;54893;49.864;19.084;2023-04-01T00:40:26;3.85;;;1.30;;
68108;SDS011;54893;49.864;19.084;2023-04-01T00:45:34;4.83;;;1.53;;
68108;SDS011;54893;49.864;19.084;2023-04-01T00:50:39;4.63;;;1.42;;
68108;SDS011;54893;49.864;19.084;2023-04-01T00:55:43;4.30;;;1.43;;
68108;SDS011;54893;49.864;19.084;2023-04-01T01:00:50;5.63;;;1.42;;
68108;SDS011;54893;49.864;19.084;2023-04-01T01:11:29;3.90;;;1.50;;
68108;SDS011;54893;49.864;19.084;2023-04-01T01:16:39;6.30;;;1.85;;
68108;SDS011;54893;49.864;19.084;2023-04-01T01:27:16;6.07;;;1.90;;
68108;SDS011;54893;49.864;19.084;2023-04-01T01:37:18;6.50;;;1.70;;
68108;SDS011;54893;49.864;19.084;2023-04-01T01:42:22;5.63;;;1.73;;
68108;SDS011;54893;49.864;19.084;2023-04-01T01:47:25;5.40;;;1.77;;
68108;SDS011;54893;49.864;19.084;2023-04-01T01:52:27;5.07;;;2.00;;
68108;SDS011;54893;49.864;19.084;2023-04-01T01:57:29;4.80;;;1.73;;
68108;SDS011;54893;49.864;19.084;2023-04-01T02:02:33;4.85;;;1.90;;
68108;SDS011;54893;49.864;19.084;2023-04-01T02:07:33;5.40;;;1.80;;
68108;SDS011;54893;49.864;19.084;2023-04-01T02:12:36;6.00;;;1.70;;
68108;SDS011;54893;49.864;19.084;2023-04-01T02:17:39;5.73;;;1.73;;
68108;SDS011;54893;49.864;19.084;2023-04-01T02:22:44;5.82;;;2.08;;
68108;SDS011;54893;49.864;19.084;2023-04-01T02:27:49;3.78;;;1.17;;
68108;SDS011;54893;49.864;19.084;2023-04-01T02:32:50;6.47;;;1.87;;
68108;SDS011;54893;49.864;19.084;2023-04-01T02:37:50;5.37;;;1.53;;
68108;SDS011;54893;49.864;19.084;2023-04-01T02:42:52;7.60;;;2.00;;
68108;SDS011;54893;49.864;19.084;2023-04-01T02:47:53;5.27;;;1.60;;
68108;SDS011;54893;49.864;19.084;2023-04-01T02:52:53;4.38;;;1.20;;
68108;SDS011;54893;49.864;19.084;2023-04-01T02:57:53;4.40;;;1.53;;
68108;SDS011;54893;49.864;19.084;2023-04-01T03:02:53;5.33;;;1.77;;
68108;SDS011;54893;49.864;19.084;2023-04-01T03:07:54;4.10;;;1.40;;
68108;SDS011;54893;49.864;19.084;2023-04-01T03:12:55;5.03;;;1.67;;
68108;SDS011;54893;49.864;19.084;2023-04-01T03:17:55;5.60;;;1.77;;
68108;SDS011;54893;49.864;19.084;2023-04-01T03:22:56;4.85;;;1.70;;
68108;SDS011;54893;49.864;19.084;2023-04-01T03:27:56;4.30;;;1.52;;
68108;SDS011;54893;49.864;19.084;2023-04-01T03:32:59;5.63;;;1.60;;
68108;SDS011;54893;49.864;19.084;2023-04-01T03:38:00;8.05;;;1.80;;
68108;SDS011;54893;49.864;19.084;2023-04-01T03:43:00;4.87;;;1.90;;
68108;SDS011;54893;49.864;19.084;2023-04-01T03:48:01;5.27;;;1.67;;
68108;SDS011;54893;49.864;19.084;2023-04-01T03:53:01;6.30;;;1.87;;
68108;SDS011;54893;49.864;19.084;2023-04-01T03:58:02;5.97;;;1.90;;
68108;SDS011;54893;49.864;19.084;2023-04-01T04:03:02;4.65;;;1.70;;
68108;SDS011;54893;49.864;19.084;2023-04-01T04:08:03;5.63;;;1.90;;
68108;SDS011;54893;49.864;19.084;2023-04-01T04:13:04;7.40;;;1.80;;
68108;SDS011;54893;49.864;19.084;2023-04-01T04:18:04;7.67;;;2.10;;
68108;SDS011;54893;49.864;19.084;2023-04-01T04:23:04;7.17;;;2.20;;
68108;SDS011;54893;49.864;19.084;2023-04-01T04:28:05;5.13;;;1.93;;
68108;SDS011;54893;49.864;19.084;2023-04-01T04:33:05;7.83;;;2.00;;
68108;SDS011;54893;49.864;19.084;2023-04-01T04:38:05;9.13;;;2.30;;
68108;SDS011;54893;49.864;19.084;2023-04-01T04:43:06;8.43;;;1.90;;
68108;SDS011;54893;49.864;19.084;2023-04-01T04:48:07;7.03;;;2.30;;
68108;SDS011;54893;49.864;19.084;2023-04-01T04:53:12;5.88;;;2.05;;
68108;SDS011;54893;49.864;19.084;2023-04-01T04:58:12;6.03;;;2.00;;
68108;SDS011;54893;49.864;19.084;2023-04-01T05:03:13;7.27;;;2.23;;
68108;SDS011;54893;49.864;19.084;2023-04-01T05:08:14;6.90;;;2.00;;
68108;SDS011;54893;49.864;19.084;2023-04-01T05:13:14;7.83;;;1.97;;
68108;SDS011;54893;49.864;19.084;2023-04-01T05:18:15;6.47;;;2.27;;
68108;SDS011;54893;49.864;19.084;2023-04-01T05:23:16;5.60;;;2.10;;
68108;SDS011;54893;49.864;19.084;2023-04-01T05:28:17;7.43;;;2.80;;
68108;SDS011;54893;49.864;19.084;2023-04-01T05:33:17;6.10;;;2.10;;
68108;SDS011;54893;49.864;19.084;2023-04-01T05:38:17;6.50;;;1.77;;
68108;SDS011;54893;49.864;19.084;2023-04-01T05:43:18;8.37;;;1.70;;
68108;SDS011;54893;49.864;19.084;2023-04-01T05:48:18;5.67;;;2.00;;
68108;SDS011;54893;49.864;19.084;2023-04-01T05:53:18;5.87;;;1.97;;
68108;SDS011;54893;49.864;19.084;2023-04-01T05:58:19;8.35;;;2.08;;
68108;SDS011;54893;49.864;19.084;2023-04-01T06:03:19;5.53;;;1.73;;
68108;SDS011;54893;49.864;19.084;2023-04-01T06:08:20;5.07;;;2.00;;
68108;SDS011;54893;49.864;19.084;2023-04-01T06:18:55;5.53;;;2.20;;
68108;SDS011;54893;49.864;19.084;2023-04-01T06:24:28;5.03;;;2.20;;
68108;SDS011;54893;49.864;19.084;2023-04-01T06:45:44;4.77;;;1.33;;
68108;SDS011;54893;49.864;19.084;2023-04-01T06:51:01;3.53;;;1.48;;
68108;SDS011;54893;49.864;19.084;2023-04-01T06:56:14;5.33;;;1.80;;
68108;SDS011;54893;49.864;19.084;2023-04-01T07:01:26;4.47;;;1.70;;
68108;SDS011;54893;49.864;19.084;2023-04-01T07:06:52;4.22;;;1.58;;
68108;SDS011;54893;49.864;19.084;2023-04-01T07:11:56;3.83;;;1.53;;
68108;SDS011;54893;49.864;19.084;2023-04-01T07:17:04;7.57;;;1.70;;
68108;SDS011;54893;49.864;19.084;2023-04-01T07:27:39;4.72;;;2.03;;
68108;SDS011;54893;49.864;19.084;2023-04-01T07:38:05;6.37;;;2.20;;
68108;SDS011;54893;49.864;19.084;2023-04-01T07:43:55;5.60;;;2.35;;
68108;SDS011;54893;49.864;19.084;2023-04-01T07:48:43;5.10;;;2.20;;
68108;SDS011;54893;49.864;19.084;2023-04-01T08:04:28;4.37;;;1.90;;
68108;SDS011;54893;49.864;19.084;2023-04-01T08:15:32;4.73;;;1.83;;
68108;SDS011;54893;49.864;19.084;2023-04-01T08:20:58;5.53;;;1.98;;
68108;SDS011;54893;49.864;19.084;2023-04-01T08:26:02;5.15;;;2.03;;
68108;SDS011;54893;49.864;19.084;2023-04-01T08:31:18;6.00;;;2.10;;
68108;SDS011;54893;49.864;19.084;2023-04-01T08:36:28;6.65;;;2.55;;
68108;SDS011;54893;49.864;19.084;2023-04-01T08:52:01;5.70;;;2.05;;
68108;SDS011;54893;49.864;19.084;2023-04-01T09:02:51;7.75;;;3.10;;
68108;SDS011;54893;49.864;19.084;2023-04-01T09:07:59;6.20;;;2.60;;
68108;SDS011;54893;49.864;19.084;2023-04-01T09:34:40;7.50;;;3.97;;
68108;SDS011;54893;49.864;19.084;2023-04-01T09:45:35;5.68;;;3.10;;
68108;SDS011;54893;49.864;19.084;2023-04-01T09:50:54;6.90;;;2.97;;
68108;SDS011;54893;49.864;19.084;2023-04-01T10:17:47;6.97;;;3.93;;
68108;SDS011;54893;49.864;19.084;2023-04-01T10:39:27;6.20;;;2.80;;
68108;SDS011;54893;49.864;19.084;2023-04-01T10:50:16;9.65;;;4.15;;
68108;SDS011;54893;49.864;19.084;2023-04-01T11:00:57;12.05;;;5.45;;
68108;SDS011;54893;49.864;19.084;2023-04-01T11:06:34;11.63;;;4.22;;
68108;SDS011;54893;49.864;19.084;2023-04-01T11:44:16;11.85;;;4.28;;
68108;SDS011;54893;49.864;19.084;2023-04-01T11:49:42;6.40;;;4.10;;
68108;SDS011;54893;49.864;19.084;2023-04-01T12:11:17;7.35;;;3.83;;
68108;SDS011;54893;49.864;19.084;2023-04-01T12:21:50;6.25;;;3.53;;
68108;SDS011;54893;49.864;19.084;2023-04-01T13:30:43;10.32;;;4.68;;
68108;SDS011;54893;49.864;19.084;2023-04-01T13:35:58;8.87;;;4.17;;
68108;SDS011;54893;49.864;19.084;2023-04-01T13:41:24;6.68;;;3.38;;
68108;SDS011;54893;49.864;19.084;2023-04-01T13:46:40;8.02;;;3.80;;
68108;SDS011;54893;49.864;19.084;2023-04-01T14:35:47;12.57;;;4.72;;
68108;SDS011;54893;49.864;19.084;2023-04-01T14:46:27;9.53;;;3.90;;
68108;SDS011;54893;49.864;19.084;2023-04-01T14:51:46;9.27;;;4.38;;
68108;SDS011;54893;49.864;19.084;2023-04-01T14:56:50;7.60;;;3.60;;
68108;SDS011;54893;49.864;19.084;2023-04-01T15:12:59;10.23;;;5.00;;
68108;SDS011;54893;49.864;19.084;2023-04-01T15:18:07;12.53;;;6.23;;
68108;SDS011;54893;49.864;19.084;2023-04-01T15:23:27;12.88;;;5.90;;
68108;SDS011;54893;49.864;19.084;2023-04-01T15:39:10;14.73;;;6.30;;
68108;SDS011;54893;49.864;19.084;2023-04-01T15:49:41;37.35;;;11.52;;
68108;SDS011;54893;49.864;19.084;2023-04-01T16:00:09;14.65;;;5.55;;
68108;SDS011;54893;49.864;19.084;2023-04-01T16:22:18;13.90;;;6.85;;
68108;SDS011;54893;49.864;19.084;2023-04-01T16:33:04;23.92;;;12.13;;
68108;SDS011;54893;49.864;19.084;2023-04-01T16:38:21;16.87;;;7.70;;
68108;SDS011;54893;49.864;19.084;2023-04-01T16:43:43;13.73;;;5.85;;
68108;SDS011;54893;49.864;19.084;2023-04-01T16:48:52;15.10;;;6.35;;
68108;SDS011;54893;49.864;19.084;2023-04-01T16:54:04;12.35;;;5.68;;
68108;SDS011;54893;49.864;19.084;2023-04-01T16:59:15;14.32;;;6.35;;
68108;SDS011;54893;49.864;19.084;2023-04-01T17:04:31;18.63;;;8.00;;
68108;SDS011;54893;49.864;19.084;2023-04-01T17:09:55;12.73;;;5.40;;
68108;SDS011;54893;49.864;19.084;2023-04-01T17:15:21;16.00;;;6.82;;
68108;SDS011;54893;49.864;19.084;2023-04-01T18:34:55;20.63;;;10.20;;
68108;SDS011;54893;49.864;19.084;2023-04-01T18:40:12;23.57;;;10.07;;
68108;SDS011;54893;49.864;19.084;2023-04-01T18:50:52;20.45;;;9.32;;
68108;SDS011;54893;49.864;19.084;2023-04-01T18:55:57;26.20;;;12.60;;
68108;SDS011;54893;49.864;19.084;2023-04-01T19:01:17;25.60;;;11.25;;
68108;SDS011;54893;49.864;19.084;2023-04-01T19:06:33;25.03;;;11.53;;
68108;SDS011;54893;49.864;19.084;2023-04-01T19:17:03;35.75;;;19.40;;
68108;SDS011;54893;49.864;19.084;2023-04-01T19:27:48;15.05;;;7.00;;
68108;SDS011;54893;49.864;19.084;2023-04-01T19:38:37;19.67;;;9.32;;
68108;SDS011;54893;49.864;19.084;2023-04-01T20:00:17;35.37;;;14.97;;
68108;SDS011;54893;49.864;19.084;2023-04-01T20:05:47;35.95;;;13.93;;
68108;SDS011;54893;49.864;19.084;2023-04-01T20:16:20;33.93;;;16.23;;
68108;SDS011;54893;49.864;19.084;2023-04-01T20:21:35;42.40;;;17.15;;
68108;SDS011;54893;49.864;19.084;2023-04-01T20:26:42;44.67;;;19.80;;
68108;SDS011;54893;49.864;19.084;2023-04-01T20:31:50;50.15;;;21.23;;
68108;SDS011;54893;49.864;19.084;2023-04-01T20:48:11;41.03;;;18.30;;
68108;SDS011;54893;49.864;19.084;2023-04-01T20:53:30;46.63;;;18.80;;
68108;SDS011;54893;49.864;19.084;2023-04-01T20:58:48;38.70;;;18.30;;
68108;SDS011;54893;49.864;19.084;2023-04-01T21:04:27;39.03;;;17.48;;
68108;SDS011;54893;49.864;19.084;2023-04-01T21:09:40;42.07;;;18.67;;
68108;SDS011;54893;49.864;19.084;2023-04-01T21:14:59;42.88;;;19.75;;
68108;SDS011;54893;49.864;19.084;2023-04-01T21:46:50;49.00;;;19.87;;
68108;SDS011;54893;49.864;19.084;2023-04-01T22:13:58;31.43;;;15.00;;
68108;SDS011;54893;49.864;19.084;2023-04-01T22:19:51;29.45;;;14.38;;
68108;SDS011;54893;49.864;19.084;2023-04-01T22:29:56;27.67;;;13.37;;
68108;SDS011;54893;49.864;19.084;2023-04-01T22:35:18;27.80;;;13.10;;
68108;SDS011;54893;49.864;19.084;2023-04-01T22:46:06;32.03;;;13.45;;
68108;SDS011;54893;49.864;19.084;2023-04-01T22:56:39;45.17;;;22.57;;
68108;SDS011;54893;49.864;19.084;2023-04-01T23:01:47;44.80;;;22.60;;
68108;SDS011;54893;49.864;19.084;2023-04-01T23:06:55;27.70;;;12.57;;
68108;SDS011;54893;49.864;19.084;2023-04-01T23:12:09;35.13;;;14.85;;
68108;SDS011;54893;49.864;19.084;2023-04-01T23:17:28;41.70;;;21.67;;
68108;SDS011;54893;49.864;19.084;2023-04-01T23:22:42;28.97;;;14.63;;
68108;SDS011;54893;49.864;19.084;2023-04-01T23:38:20;34.45;;;16.50;;
68108;SDS011;54893;49.864;19.084;2023-04-01T23:43:27;35.60;;;17.10;;
68108;SDS011;54893;49.864;19.084;2023-04-01T23:48:38;41.07;;;18.60;;
68108;SDS011;54893;49.864;19.084;2023-04-01T23:53:42;32.28;;;15.93;;
68108;SDS011;54893;49.864;19.084;2023-04-01T23:58:49;35.23;;;16.27;;
